sensor_id;sensor_type;location;lat;lon;timestamp;P1;durP1;ratioP1;P2;durP2;ratioP2
6842;SDS011;3460;52.028;8.916;2022-12-05T00:02:06;20.33;;;11.07;;
6842;SDS011;3460;52.028;8.916;2022-12-05T00:04:33;21.47;;;11.90;;
6842;SDS011;3460;52.028;8.916;2022-12-05T00:07:00;17.97;;;10.83;;
6842;SDS011;3460;52.028;8.916;2022-12-05T00:09:27;19.30;;;10.83;;
6842;SDS011;3460;52.028;8.916;2022-12-05T00:11:53;16.50;;;10.33;;
6842;SDS011;3460;52.028;8.916;2022-12-05T00:14:20;16.83;;;10.27;;
6842;SDS011;3460;52.028;8.916;2022-12-05T00:16:47;17.50;;;10.10;;
6842;SDS011;3460;52.028;8.916;2022-12-05T00:19:15;17.63;;;9.87;;
6842;SDS011;3460;52.028;8.916;2022-12-05T00:21:42;18.60;;;10.90;;
6842;SDS011;3460;52.028;8.916;2022-12-05T00:24:10;18.17;;;10.63;;
6842;SDS011;3460;52.028;8.916;2022-12-05T00:26:38;21.53;;;11.37;;
6842;SDS011;3460;52.028;8.916;2022-12-05T00:29:05;19.03;;;11.07;;
6842;SDS011;3460;52.028;8.916;2022-12-05T00:31:32;18.03;;;10.80;;
6842;SDS011;3460;52.028;8.916;2022-12-05T00:33:59;20.50;;;12.10;;
6842;SDS011;3460;52.028;8.916;2022-12-05T00:36:29;17.27;;;9.73;;
6842;SDS011;3460;52.028;8.916;2022-12-05T00:38:57;17.37;;;10.57;;
6842;SDS011;3460;52.028;8.916;2022-12-05T00:41:25;17.70;;;10.20;;
6842;SDS011;3460;52.028;8.916;2022-12-05T00:43:53;17.17;;;10.07;;
6842;SDS011;3460;52.028;8.916;2022-12-05T00:46:21;19.50;;;10.80;;
6842;SDS011;3460;52.028;8.916;2022-12-05T00:48:50;19.33;;;10.93;;
6842;SDS011;3460;52.028;8.916;2022-12-05T00:51:18;18.63;;;10.23;;
6842;SDS011;3460;52.028;8.916;2022-12-05T00:53:48;15.07;;;9.90;;
6842;SDS011;3460;52.028;8.916;2022-12-05T00:56:16;15.27;;;9.77;;
6842;SDS011;3460;52.028;8.916;2022-12-05T00:58:45;15.03;;;9.60;;
6842;SDS011;3460;52.028;8.916;2022-12-05T01:01:13;18.27;;;10.57;;
6842;SDS011;3460;52.028;8.916;2022-12-05T01:03:42;17.53;;;10.47;;
6842;SDS011;3460;52.028;8.916;2022-12-05T01:06:10;18.23;;;10.07;;
6842;SDS011;3460;52.028;8.916;2022-12-05T01:08:38;13.17;;;9.50;;
6842;SDS011;3460;52.028;8.916;2022-12-05T01:11:07;16.47;;;9.60;;
6842;SDS011;3460;52.028;8.916;2022-12-05T01:13:34;16.53;;;9.90;;
6842;SDS011;3460;52.028;8.916;2022-12-05T01:16:01;17.43;;;10.30;;
6842;SDS011;3460;52.028;8.916;2022-12-05T01:18:29;16.20;;;10.07;;
6842;SDS011;3460;52.028;8.916;2022-12-05T01:20:56;16.13;;;10.33;;
6842;SDS011;3460;52.028;8.916;2022-12-05T01:23:23;19.10;;;9.97;;
6842;SDS011;3460;52.028;8.916;2022-12-05T01:25:50;17.63;;;9.83;;
6842;SDS011;3460;52.028;8.916;2022-12-05T01:28:19;17.70;;;9.47;;
6842;SDS011;3460;52.028;8.916;2022-12-05T01:30:47;18.53;;;10.67;;
6842;SDS011;3460;52.028;8.916;2022-12-05T01:33:15;17.13;;;10.17;;
6842;SDS011;3460;52.028;8.916;2022-12-05T01:35:42;15.83;;;9.80;;
6842;SDS011;3460;52.028;8.916;2022-12-05T01:38:09;18.23;;;10.50;;
6842;SDS011;3460;52.028;8.916;2022-12-05T01:40:37;16.30;;;9.77;;
6842;SDS011;3460;52.028;8.916;2022-12-05T01:43:05;16.13;;;9.97;;
6842;SDS011;3460;52.028;8.916;2022-12-05T01:45:42;15.00;;;9.07;;
6842;SDS011;3460;52.028;8.916;2022-12-05T01:48:10;17.07;;;10.20;;
6842;SDS011;3460;52.028;8.916;2022-12-05T01:50:41;18.53;;;9.70;;
6842;SDS011;3460;52.028;8.916;2022-12-05T01:53:09;17.00;;;9.90;;
6842;SDS011;3460;52.028;8.916;2022-12-05T01:55:36;16.27;;;9.53;;
6842;SDS011;3460;52.028;8.916;2022-12-05T01:58:04;14.70;;;9.27;;
6842;SDS011;3460;52.028;8.916;2022-12-05T02:00:32;16.10;;;8.73;;
6842;SDS011;3460;52.028;8.916;2022-12-05T02:03:00;15.67;;;9.60;;
6842;SDS011;3460;52.028;8.916;2022-12-05T02:05:32;15.00;;;9.37;;
6842;SDS011;3460;52.028;8.916;2022-12-05T02:08:01;17.07;;;9.77;;
6842;SDS011;3460;52.028;8.916;2022-12-05T02:10:33;15.50;;;9.33;;
6842;SDS011;3460;52.028;8.916;2022-12-05T02:13:04;15.73;;;9.37;;
6842;SDS011;3460;52.028;8.916;2022-12-05T02:15:39;15.90;;;9.27;;
6842;SDS011;3460;52.028;8.916;2022-12-05T02:24:24;15.77;;;9.70;;
6842;SDS011;3460;52.028;8.916;2022-12-05T02:27:16;17.40;;;9.27;;
6842;SDS011;3460;52.028;8.916;2022-12-05T02:30:07;15.20;;;8.80;;
6842;SDS011;3460;52.028;8.916;2022-12-05T02:32:46;16.47;;;9.63;;
6842;SDS011;3460;52.028;8.916;2022-12-05T02:35:25;14.00;;;8.87;;
6842;SDS011;3460;52.028;8.916;2022-12-05T02:38:00;14.17;;;9.33;;
6842;SDS011;3460;52.028;8.916;2022-12-05T02:40:39;16.80;;;9.50;;
6842;SDS011;3460;52.028;8.916;2022-12-05T02:43:12;15.40;;;8.93;;
6842;SDS011;3460;52.028;8.916;2022-12-05T02:45:44;15.00;;;9.43;;
6842;SDS011;3460;52.028;8.916;2022-12-05T02:48:14;16.27;;;9.67;;
6842;SDS011;3460;52.028;8.916;2022-12-05T02:50:42;16.00;;;10.23;;
6842;SDS011;3460;52.028;8.916;2022-12-05T02:53:12;19.00;;;9.70;;
6842;SDS011;3460;52.028;8.916;2022-12-05T02:55:42;15.27;;;9.40;;
6842;SDS011;3460;52.028;8.916;2022-12-05T02:58:14;16.17;;;9.47;;
6842;SDS011;3460;52.028;8.916;2022-12-05T03:00:46;15.53;;;9.73;;
6842;SDS011;3460;52.028;8.916;2022-12-05T03:03:16;17.10;;;9.20;;
6842;SDS011;3460;52.028;8.916;2022-12-05T03:05:46;16.47;;;9.83;;
6842;SDS011;3460;52.028;8.916;2022-12-05T03:08:18;14.57;;;9.47;;
6842;SDS011;3460;52.028;8.916;2022-12-05T03:10:47;14.27;;;9.70;;
6842;SDS011;3460;52.028;8.916;2022-12-05T03:13:17;15.03;;;9.37;;
6842;SDS011;3460;52.028;8.916;2022-12-05T03:15:48;16.40;;;9.37;;
6842;SDS011;3460;52.028;8.916;2022-12-05T03:18:19;15.23;;;9.17;;
6842;SDS011;3460;52.028;8.916;2022-12-05T03:20:50;18.07;;;9.57;;
6842;SDS011;3460;52.028;8.916;2022-12-05T03:23:22;14.83;;;9.50;;
6842;SDS011;3460;52.028;8.916;2022-12-05T03:25:57;16.07;;;9.57;;
6842;SDS011;3460;52.028;8.916;2022-12-05T03:28:36;14.67;;;9.43;;
6842;SDS011;3460;52.028;8.916;2022-12-05T03:31:15;15.40;;;9.37;;
6842;SDS011;3460;52.028;8.916;2022-12-05T03:33:49;17.23;;;8.97;;
6842;SDS011;3460;52.028;8.916;2022-12-05T03:36:22;14.97;;;9.47;;
6842;SDS011;3460;52.028;8.916;2022-12-05T03:38:55;15.30;;;9.73;;
6842;SDS011;3460;52.028;8.916;2022-12-05T03:41:30;18.37;;;10.77;;
6842;SDS011;3460;52.028;8.916;2022-12-05T03:44:02;16.40;;;9.23;;
6842;SDS011;3460;52.028;8.916;2022-12-05T03:46:35;17.70;;;10.33;;
6842;SDS011;3460;52.028;8.916;2022-12-05T03:49:07;18.17;;;10.97;;
6842;SDS011;3460;52.028;8.916;2022-12-05T03:51:38;18.07;;;9.73;;
6842;SDS011;3460;52.028;8.916;2022-12-05T03:54:11;17.17;;;10.13;;
6842;SDS011;3460;52.028;8.916;2022-12-05T03:56:45;17.50;;;10.17;;
6842;SDS011;3460;52.028;8.916;2022-12-05T03:59:17;15.37;;;9.83;;
6842;SDS011;3460;52.028;8.916;2022-12-05T04:01:53;16.77;;;10.17;;
6842;SDS011;3460;52.028;8.916;2022-12-05T04:04:24;16.10;;;10.30;;
6842;SDS011;3460;52.028;8.916;2022-12-05T04:06:54;15.60;;;10.20;;
6842;SDS011;3460;52.028;8.916;2022-12-05T04:09:25;16.43;;;10.47;;
6842;SDS011;3460;52.028;8.916;2022-12-05T04:11:57;13.77;;;9.90;;
6842;SDS011;3460;52.028;8.916;2022-12-05T04:14:27;14.43;;;9.17;;
6842;SDS011;3460;52.028;8.916;2022-12-05T04:16:59;18.97;;;11.00;;
6842;SDS011;3460;52.028;8.916;2022-12-05T04:19:29;15.80;;;9.70;;
6842;SDS011;3460;52.028;8.916;2022-12-05T04:22:15;16.53;;;9.60;;
6842;SDS011;3460;52.028;8.916;2022-12-05T04:24:42;15.90;;;10.23;;
6842;SDS011;3460;52.028;8.916;2022-12-05T04:27:27;16.20;;;9.93;;
6842;SDS011;3460;52.028;8.916;2022-12-05T04:30:03;14.00;;;9.10;;
6842;SDS011;3460;52.028;8.916;2022-12-05T04:32:35;17.63;;;10.33;;
6842;SDS011;3460;52.028;8.916;2022-12-05T04:35:06;16.73;;;10.27;;
6842;SDS011;3460;52.028;8.916;2022-12-05T04:37:38;15.67;;;9.43;;
6842;SDS011;3460;52.028;8.916;2022-12-05T04:40:08;17.33;;;9.93;;
6842;SDS011;3460;52.028;8.916;2022-12-05T04:42:39;16.17;;;9.43;;
6842;SDS011;3460;52.028;8.916;2022-12-05T04:45:09;14.93;;;9.43;;
6842;SDS011;3460;52.028;8.916;2022-12-05T04:47:40;17.40;;;9.83;;
6842;SDS011;3460;52.028;8.916;2022-12-05T04:50:14;16.70;;;9.63;;
6842;SDS011;3460;52.028;8.916;2022-12-05T04:52:42;17.13;;;9.53;;
6842;SDS011;3460;52.028;8.916;2022-12-05T04:55:14;16.23;;;9.63;;
6842;SDS011;3460;52.028;8.916;2022-12-05T04:57:50;16.03;;;9.37;;
6842;SDS011;3460;52.028;8.916;2022-12-05T05:00:22;14.90;;;9.70;;
6842;SDS011;3460;52.028;8.916;2022-12-05T05:02:52;16.13;;;9.77;;
6842;SDS011;3460;52.028;8.916;2022-12-05T05:05:21;16.33;;;9.83;;
6842;SDS011;3460;52.028;8.916;2022-12-05T05:07:49;13.67;;;9.33;;
6842;SDS011;3460;52.028;8.916;2022-12-05T05:10:18;14.60;;;9.63;;
6842;SDS011;3460;52.028;8.916;2022-12-05T05:12:52;15.43;;;9.63;;
6842;SDS011;3460;52.028;8.916;2022-12-05T05:15:19;14.47;;;9.53;;
6842;SDS011;3460;52.028;8.916;2022-12-05T05:17:45;17.20;;;10.43;;
6842;SDS011;3460;52.028;8.916;2022-12-05T05:20:13;15.97;;;10.00;;
6842;SDS011;3460;52.028;8.916;2022-12-05T05:22:49;14.57;;;9.87;;
6842;SDS011;3460;52.028;8.916;2022-12-05T05:25:17;17.00;;;9.47;;
6842;SDS011;3460;52.028;8.916;2022-12-05T05:27:46;14.07;;;9.87;;
6842;SDS011;3460;52.028;8.916;2022-12-05T05:30:14;15.07;;;9.53;;
6842;SDS011;3460;52.028;8.916;2022-12-05T05:32:41;16.53;;;10.20;;
6842;SDS011;3460;52.028;8.916;2022-12-05T05:35:08;15.77;;;10.03;;
6842;SDS011;3460;52.028;8.916;2022-12-05T05:37:37;15.57;;;10.73;;
6842;SDS011;3460;52.028;8.916;2022-12-05T05:40:04;19.87;;;11.37;;
6842;SDS011;3460;52.028;8.916;2022-12-05T05:42:32;17.00;;;11.03;;
6842;SDS011;3460;52.028;8.916;2022-12-05T05:44:59;15.23;;;10.57;;
6842;SDS011;3460;52.028;8.916;2022-12-05T05:47:26;16.23;;;10.37;;
6842;SDS011;3460;52.028;8.916;2022-12-05T05:49:52;16.97;;;10.43;;
6842;SDS011;3460;52.028;8.916;2022-12-05T05:52:19;16.67;;;10.13;;
6842;SDS011;3460;52.028;8.916;2022-12-05T05:54:47;13.90;;;9.70;;
6842;SDS011;3460;52.028;8.916;2022-12-05T05:57:14;16.87;;;10.27;;
6842;SDS011;3460;52.028;8.916;2022-12-05T05:59:41;14.17;;;9.47;;
6842;SDS011;3460;52.028;8.916;2022-12-05T06:02:07;16.37;;;10.13;;
6842;SDS011;3460;52.028;8.916;2022-12-05T06:04:34;15.63;;;9.43;;
6842;SDS011;3460;52.028;8.916;2022-12-05T06:07:01;19.00;;;11.17;;
6842;SDS011;3460;52.028;8.916;2022-12-05T06:09:27;15.13;;;10.00;;
6842;SDS011;3460;52.028;8.916;2022-12-05T06:11:55;15.90;;;10.23;;
6842;SDS011;3460;52.028;8.916;2022-12-05T06:14:22;17.50;;;10.50;;
6842;SDS011;3460;52.028;8.916;2022-12-05T06:16:49;18.53;;;12.77;;
6842;SDS011;3460;52.028;8.916;2022-12-05T06:19:15;16.97;;;11.37;;
6842;SDS011;3460;52.028;8.916;2022-12-05T06:21:42;18.77;;;13.00;;
6842;SDS011;3460;52.028;8.916;2022-12-05T06:24:09;16.77;;;10.80;;
6842;SDS011;3460;52.028;8.916;2022-12-05T06:26:36;18.17;;;10.10;;
6842;SDS011;3460;52.028;8.916;2022-12-05T06:29:04;14.63;;;8.80;;
6842;SDS011;3460;52.028;8.916;2022-12-05T06:31:30;17.07;;;11.13;;
6842;SDS011;3460;52.028;8.916;2022-12-05T06:33:58;12.97;;;9.47;;
6842;SDS011;3460;52.028;8.916;2022-12-05T06:36:26;14.87;;;10.03;;
6842;SDS011;3460;52.028;8.916;2022-12-05T06:38:54;16.63;;;11.50;;
6842;SDS011;3460;52.028;8.916;2022-12-05T06:41:21;15.23;;;9.73;;
6842;SDS011;3460;52.028;8.916;2022-12-05T06:43:50;16.40;;;10.77;;
6842;SDS011;3460;52.028;8.916;2022-12-05T06:46:20;25.00;;;14.87;;
6842;SDS011;3460;52.028;8.916;2022-12-05T06:48:47;26.40;;;16.60;;
6842;SDS011;3460;52.028;8.916;2022-12-05T06:51:15;27.80;;;16.70;;
6842;SDS011;3460;52.028;8.916;2022-12-05T06:53:42;16.43;;;11.13;;
6842;SDS011;3460;52.028;8.916;2022-12-05T06:56:09;22.97;;;13.87;;
6842;SDS011;3460;52.028;8.916;2022-12-05T06:58:38;20.20;;;11.43;;
6842;SDS011;3460;52.028;8.916;2022-12-05T07:01:08;15.70;;;10.70;;
6842;SDS011;3460;52.028;8.916;2022-12-05T07:03:55;12.40;;;8.73;;
6842;SDS011;3460;52.028;8.916;2022-12-05T07:06:22;12.70;;;9.13;;
6842;SDS011;3460;52.028;8.916;2022-12-05T07:08:48;13.30;;;9.30;;
6842;SDS011;3460;52.028;8.916;2022-12-05T07:11:15;12.77;;;8.23;;
6842;SDS011;3460;52.028;8.916;2022-12-05T07:13:42;15.13;;;8.37;;
6842;SDS011;3460;52.028;8.916;2022-12-05T07:16:09;13.63;;;9.17;;
6842;SDS011;3460;52.028;8.916;2022-12-05T07:18:36;14.10;;;8.90;;
6842;SDS011;3460;52.028;8.916;2022-12-05T07:21:05;13.13;;;8.83;;
6842;SDS011;3460;52.028;8.916;2022-12-05T07:23:34;12.67;;;8.67;;
6842;SDS011;3460;52.028;8.916;2022-12-05T07:26:03;12.63;;;9.20;;
6842;SDS011;3460;52.028;8.916;2022-12-05T07:28:31;13.40;;;10.30;;
6842;SDS011;3460;52.028;8.916;2022-12-05T07:30:58;14.43;;;9.80;;
6842;SDS011;3460;52.028;8.916;2022-12-05T07:33:26;14.67;;;9.97;;
6842;SDS011;3460;52.028;8.916;2022-12-05T07:35:57;14.17;;;10.43;;
6842;SDS011;3460;52.028;8.916;2022-12-05T07:38:27;16.73;;;11.37;;
6842;SDS011;3460;52.028;8.916;2022-12-05T07:40:54;15.97;;;10.63;;
6842;SDS011;3460;52.028;8.916;2022-12-05T07:43:21;15.27;;;9.80;;
6842;SDS011;3460;52.028;8.916;2022-12-05T07:45:48;40.47;;;16.27;;
6842;SDS011;3460;52.028;8.916;2022-12-05T07:48:14;98.20;;;33.53;;
6842;SDS011;3460;52.028;8.916;2022-12-05T07:50:41;103.97;;;35.07;;
6842;SDS011;3460;52.028;8.916;2022-12-05T07:53:08;91.27;;;27.87;;
6842;SDS011;3460;52.028;8.916;2022-12-05T07:55:37;59.13;;;23.40;;
6842;SDS011;3460;52.028;8.916;2022-12-05T07:58:04;71.43;;;25.07;;
6842;SDS011;3460;52.028;8.916;2022-12-05T08:00:31;43.80;;;18.27;;
6842;SDS011;3460;52.028;8.916;2022-12-05T08:02:57;40.80;;;16.83;;
6842;SDS011;3460;52.028;8.916;2022-12-05T08:05:26;37.00;;;16.10;;
6842;SDS011;3460;52.028;8.916;2022-12-05T08:07:53;18.53;;;11.10;;
6842;SDS011;3460;52.028;8.916;2022-12-05T08:10:19;22.97;;;12.43;;
6842;SDS011;3460;52.028;8.916;2022-12-05T08:12:47;17.80;;;10.80;;
6842;SDS011;3460;52.028;8.916;2022-12-05T08:15:14;13.57;;;9.67;;
6842;SDS011;3460;52.028;8.916;2022-12-05T08:17:41;22.10;;;11.23;;
6842;SDS011;3460;52.028;8.916;2022-12-05T08:20:08;14.83;;;9.77;;
6842;SDS011;3460;52.028;8.916;2022-12-05T08:22:35;16.50;;;10.03;;
6842;SDS011;3460;52.028;8.916;2022-12-05T08:25:02;38.87;;;15.80;;
6842;SDS011;3460;52.028;8.916;2022-12-05T08:27:29;66.63;;;23.00;;
6842;SDS011;3460;52.028;8.916;2022-12-05T08:29:57;39.03;;;15.90;;
6842;SDS011;3460;52.028;8.916;2022-12-05T08:32:23;30.43;;;14.63;;
6842;SDS011;3460;52.028;8.916;2022-12-05T08:34:51;31.43;;;13.87;;
6842;SDS011;3460;52.028;8.916;2022-12-05T08:37:17;36.70;;;15.57;;
6842;SDS011;3460;52.028;8.916;2022-12-05T08:39:44;22.37;;;12.00;;
6842;SDS011;3460;52.028;8.916;2022-12-05T08:42:11;19.33;;;10.90;;
6842;SDS011;3460;52.028;8.916;2022-12-05T08:44:38;16.30;;;10.40;;
6842;SDS011;3460;52.028;8.916;2022-12-05T08:47:06;18.83;;;11.50;;
6842;SDS011;3460;52.028;8.916;2022-12-05T08:49:32;18.30;;;10.67;;
6842;SDS011;3460;52.028;8.916;2022-12-05T08:51:59;14.83;;;9.63;;
6842;SDS011;3460;52.028;8.916;2022-12-05T08:54:26;14.80;;;10.03;;
6842;SDS011;3460;52.028;8.916;2022-12-05T08:56:53;25.53;;;13.77;;
6842;SDS011;3460;52.028;8.916;2022-12-05T08:59:19;18.67;;;11.20;;
6842;SDS011;3460;52.028;8.916;2022-12-05T09:01:48;18.87;;;11.57;;
6842;SDS011;3460;52.028;8.916;2022-12-05T09:04:16;16.50;;;10.37;;
6842;SDS011;3460;52.028;8.916;2022-12-05T09:06:45;23.90;;;11.17;;
6842;SDS011;3460;52.028;8.916;2022-12-05T09:09:11;21.00;;;11.77;;
6842;SDS011;3460;52.028;8.916;2022-12-05T09:11:39;20.07;;;11.67;;
6842;SDS011;3460;52.028;8.916;2022-12-05T09:14:10;17.93;;;10.40;;
6842;SDS011;3460;52.028;8.916;2022-12-05T09:16:37;16.83;;;10.33;;
6842;SDS011;3460;52.028;8.916;2022-12-05T09:19:04;15.60;;;10.13;;
6842;SDS011;3460;52.028;8.916;2022-12-05T09:21:37;16.57;;;10.10;;
6842;SDS011;3460;52.028;8.916;2022-12-05T09:24:03;16.23;;;10.80;;
6842;SDS011;3460;52.028;8.916;2022-12-05T09:26:30;16.23;;;10.60;;
6842;SDS011;3460;52.028;8.916;2022-12-05T09:28:57;17.07;;;11.47;;
6842;SDS011;3460;52.028;8.916;2022-12-05T09:31:24;19.63;;;13.60;;
6842;SDS011;3460;52.028;8.916;2022-12-05T09:33:53;21.57;;;15.10;;
6842;SDS011;3460;52.028;8.916;2022-12-05T09:36:21;18.77;;;13.17;;
6842;SDS011;3460;52.028;8.916;2022-12-05T09:38:51;20.03;;;12.17;;
6842;SDS011;3460;52.028;8.916;2022-12-05T09:41:23;18.40;;;12.57;;
6842;SDS011;3460;52.028;8.916;2022-12-05T09:44:21;16.67;;;11.73;;
6842;SDS011;3460;52.028;8.916;2022-12-05T09:46:57;18.23;;;11.90;;
6842;SDS011;3460;52.028;8.916;2022-12-05T09:49:26;17.97;;;11.83;;
6842;SDS011;3460;52.028;8.916;2022-12-05T09:51:55;16.87;;;10.97;;
6842;SDS011;3460;52.028;8.916;2022-12-05T09:54:24;19.50;;;11.30;;
6842;SDS011;3460;52.028;8.916;2022-12-05T09:56:52;17.93;;;12.10;;
6842;SDS011;3460;52.028;8.916;2022-12-05T09:59:19;17.83;;;11.53;;
6842;SDS011;3460;52.028;8.916;2022-12-05T10:01:48;17.77;;;12.30;;
6842;SDS011;3460;52.028;8.916;2022-12-05T10:04:26;18.23;;;11.83;;
6842;SDS011;3460;52.028;8.916;2022-12-05T10:07:04;17.37;;;12.37;;
6842;SDS011;3460;52.028;8.916;2022-12-05T10:09:50;16.67;;;11.53;;
6842;SDS011;3460;52.028;8.916;2022-12-05T10:12:26;18.77;;;12.27;;
6842;SDS011;3460;52.028;8.916;2022-12-05T10:15:09;17.57;;;11.43;;
6842;SDS011;3460;52.028;8.916;2022-12-05T10:17:40;17.70;;;11.27;;
6842;SDS011;3460;52.028;8.916;2022-12-05T10:20:10;16.10;;;11.33;;
6842;SDS011;3460;52.028;8.916;2022-12-05T10:22:42;20.77;;;12.80;;
6842;SDS011;3460;52.028;8.916;2022-12-05T10:25:16;17.60;;;11.73;;
6842;SDS011;3460;52.028;8.916;2022-12-05T10:27:47;21.90;;;13.30;;
6842;SDS011;3460;52.028;8.916;2022-12-05T10:30:17;27.63;;;18.23;;
6842;SDS011;3460;52.028;8.916;2022-12-05T10:32:48;25.13;;;16.90;;
6842;SDS011;3460;52.028;8.916;2022-12-05T10:35:19;27.87;;;17.80;;
6842;SDS011;3460;52.028;8.916;2022-12-05T10:37:48;25.13;;;16.17;;
6842;SDS011;3460;52.028;8.916;2022-12-05T10:40:18;21.47;;;15.13;;
6842;SDS011;3460;52.028;8.916;2022-12-05T10:42:46;22.80;;;14.83;;
6842;SDS011;3460;52.028;8.916;2022-12-05T10:45:14;28.50;;;18.70;;
6842;SDS011;3460;52.028;8.916;2022-12-05T10:47:43;31.87;;;20.17;;
6842;SDS011;3460;52.028;8.916;2022-12-05T10:50:16;25.67;;;16.17;;
6842;SDS011;3460;52.028;8.916;2022-12-05T10:52:48;23.73;;;16.03;;
6842;SDS011;3460;52.028;8.916;2022-12-05T10:55:18;20.40;;;12.97;;
6842;SDS011;3460;52.028;8.916;2022-12-05T10:57:48;16.43;;;11.43;;
6842;SDS011;3460;52.028;8.916;2022-12-05T11:00:18;20.00;;;11.60;;
6842;SDS011;3460;52.028;8.916;2022-12-05T11:02:47;14.47;;;10.40;;
6842;SDS011;3460;52.028;8.916;2022-12-05T11:05:14;11.67;;;9.13;;
6842;SDS011;3460;52.028;8.916;2022-12-05T11:07:52;13.07;;;8.93;;
6842;SDS011;3460;52.028;8.916;2022-12-05T11:10:21;14.17;;;9.13;;
6842;SDS011;3460;52.028;8.916;2022-12-05T11:12:51;15.30;;;10.60;;
6842;SDS011;3460;52.028;8.916;2022-12-05T11:15:19;12.87;;;9.87;;
6842;SDS011;3460;52.028;8.916;2022-12-05T11:17:49;13.60;;;10.03;;
6842;SDS011;3460;52.028;8.916;2022-12-05T11:20:37;15.53;;;10.80;;
6842;SDS011;3460;52.028;8.916;2022-12-05T11:23:15;15.73;;;10.23;;
6842;SDS011;3460;52.028;8.916;2022-12-05T11:25:48;14.93;;;10.40;;
6842;SDS011;3460;52.028;8.916;2022-12-05T11:28:23;13.23;;;9.57;;
6842;SDS011;3460;52.028;8.916;2022-12-05T11:30:56;14.37;;;10.37;;
6842;SDS011;3460;52.028;8.916;2022-12-05T11:33:25;15.23;;;10.47;;
6842;SDS011;3460;52.028;8.916;2022-12-05T11:35:53;16.60;;;11.57;;
6842;SDS011;3460;52.028;8.916;2022-12-05T11:38:21;17.80;;;11.70;;
6842;SDS011;3460;52.028;8.916;2022-12-05T11:40:53;15.97;;;10.13;;
6842;SDS011;3460;52.028;8.916;2022-12-05T11:43:40;14.67;;;10.07;;
6842;SDS011;3460;52.028;8.916;2022-12-05T11:46:17;14.97;;;9.90;;
6842;SDS011;3460;52.028;8.916;2022-12-05T11:48:57;13.37;;;8.67;;
6842;SDS011;3460;52.028;8.916;2022-12-05T11:51:35;13.33;;;9.97;;
6842;SDS011;3460;52.028;8.916;2022-12-05T11:54:12;14.33;;;9.97;;
6842;SDS011;3460;52.028;8.916;2022-12-05T11:56:56;11.97;;;8.73;;
6842;SDS011;3460;52.028;8.916;2022-12-05T11:59:29;11.83;;;8.53;;
6842;SDS011;3460;52.028;8.916;2022-12-05T12:02:24;14.97;;;9.53;;
6842;SDS011;3460;52.028;8.916;2022-12-05T12:05:02;12.50;;;9.30;;
6842;SDS011;3460;52.028;8.916;2022-12-05T12:07:44;11.33;;;9.03;;
6842;SDS011;3460;52.028;8.916;2022-12-05T12:10:23;10.60;;;7.87;;
6842;SDS011;3460;52.028;8.916;2022-12-05T12:13:02;11.23;;;8.97;;
6842;SDS011;3460;52.028;8.916;2022-12-05T12:15:43;10.90;;;8.50;;
6842;SDS011;3460;52.028;8.916;2022-12-05T12:18:20;13.97;;;9.70;;
6842;SDS011;3460;52.028;8.916;2022-12-05T12:21:10;14.03;;;10.53;;
6842;SDS011;3460;52.028;8.916;2022-12-05T12:23:45;13.60;;;10.23;;
6842;SDS011;3460;52.028;8.916;2022-12-05T12:26:24;13.97;;;10.30;;
6842;SDS011;3460;52.028;8.916;2022-12-05T12:29:02;14.30;;;10.77;;
6842;SDS011;3460;52.028;8.916;2022-12-05T12:31:44;14.87;;;11.50;;
6842;SDS011;3460;52.028;8.916;2022-12-05T12:34:26;14.40;;;9.63;;
6842;SDS011;3460;52.028;8.916;2022-12-05T12:37:06;11.40;;;8.50;;
6842;SDS011;3460;52.028;8.916;2022-12-05T12:39:43;12.90;;;8.83;;
6842;SDS011;3460;52.028;8.916;2022-12-05T12:42:17;12.10;;;8.40;;
6842;SDS011;3460;52.028;8.916;2022-12-05T12:45:04;11.27;;;8.93;;
6842;SDS011;3460;52.028;8.916;2022-12-05T12:47:52;13.63;;;8.60;;
6842;SDS011;3460;52.028;8.916;2022-12-05T12:50:30;11.70;;;9.13;;
6842;SDS011;3460;52.028;8.916;2022-12-05T12:53:05;15.77;;;11.17;;
6842;SDS011;3460;52.028;8.916;2022-12-05T12:55:56;17.73;;;12.60;;
6842;SDS011;3460;52.028;8.916;2022-12-05T12:58:34;14.17;;;9.70;;
6842;SDS011;3460;52.028;8.916;2022-12-05T13:01:14;17.00;;;12.17;;
6842;SDS011;3460;52.028;8.916;2022-12-05T13:03:48;25.97;;;15.07;;
6842;SDS011;3460;52.028;8.916;2022-12-05T13:06:19;40.57;;;25.73;;
6842;SDS011;3460;52.028;8.916;2022-12-05T13:08:52;29.20;;;20.27;;
6842;SDS011;3460;52.028;8.916;2022-12-05T13:11:21;27.00;;;16.50;;
6842;SDS011;3460;52.028;8.916;2022-12-05T13:13:49;26.10;;;17.70;;
6842;SDS011;3460;52.028;8.916;2022-12-05T13:16:22;24.57;;;14.87;;
6842;SDS011;3460;52.028;8.916;2022-12-05T13:18:50;22.27;;;14.67;;
6842;SDS011;3460;52.028;8.916;2022-12-05T13:21:18;20.30;;;13.77;;
6842;SDS011;3460;52.028;8.916;2022-12-05T13:23:45;19.37;;;13.23;;
6842;SDS011;3460;52.028;8.916;2022-12-05T13:26:14;17.50;;;11.90;;
6842;SDS011;3460;52.028;8.916;2022-12-05T13:28:46;17.70;;;12.50;;
6842;SDS011;3460;52.028;8.916;2022-12-05T13:31:16;17.33;;;11.90;;
6842;SDS011;3460;52.028;8.916;2022-12-05T13:33:45;17.23;;;12.00;;
6842;SDS011;3460;52.028;8.916;2022-12-05T13:36:14;17.77;;;11.37;;
6842;SDS011;3460;52.028;8.916;2022-12-05T13:39:01;16.43;;;10.80;;
6842;SDS011;3460;52.028;8.916;2022-12-05T13:41:47;13.40;;;11.30;;
6842;SDS011;3460;52.028;8.916;2022-12-05T13:44:35;13.87;;;10.27;;
6842;SDS011;3460;52.028;8.916;2022-12-05T13:47:04;15.50;;;11.47;;
6842;SDS011;3460;52.028;8.916;2022-12-05T13:49:42;13.53;;;10.90;;
6842;SDS011;3460;52.028;8.916;2022-12-05T13:52:14;16.57;;;12.77;;
6842;SDS011;3460;52.028;8.916;2022-12-05T13:54:48;14.47;;;10.00;;
6842;SDS011;3460;52.028;8.916;2022-12-05T14:00:20;12.67;;;10.17;;
6842;SDS011;3460;52.028;8.916;2022-12-05T14:02:58;15.73;;;11.23;;
6842;SDS011;3460;52.028;8.916;2022-12-05T14:05:43;15.63;;;11.73;;
6842;SDS011;3460;52.028;8.916;2022-12-05T14:11:17;15.00;;;11.20;;
6842;SDS011;3460;52.028;8.916;2022-12-05T14:13:44;16.53;;;11.53;;
6842;SDS011;3460;52.028;8.916;2022-12-05T14:25:29;16.73;;;11.10;;
6842;SDS011;3460;52.028;8.916;2022-12-05T14:28:19;16.43;;;11.90;;
6842;SDS011;3460;52.028;8.916;2022-12-05T14:31:00;14.87;;;11.53;;
6842;SDS011;3460;52.028;8.916;2022-12-05T14:33:40;17.97;;;12.80;;
6842;SDS011;3460;52.028;8.916;2022-12-05T14:36:12;14.73;;;11.70;;
6842;SDS011;3460;52.028;8.916;2022-12-05T14:38:43;17.20;;;11.87;;
6842;SDS011;3460;52.028;8.916;2022-12-05T14:41:10;17.73;;;12.83;;
6842;SDS011;3460;52.028;8.916;2022-12-05T14:43:40;21.80;;;13.90;;
6842;SDS011;3460;52.028;8.916;2022-12-05T14:46:14;22.37;;;13.33;;
6842;SDS011;3460;52.028;8.916;2022-12-05T14:48:45;15.10;;;10.97;;
6842;SDS011;3460;52.028;8.916;2022-12-05T14:54:12;15.40;;;10.90;;
6842;SDS011;3460;52.028;8.916;2022-12-05T14:56:42;16.13;;;10.83;;
6842;SDS011;3460;52.028;8.916;2022-12-05T14:59:16;12.23;;;9.70;;
6842;SDS011;3460;52.028;8.916;2022-12-05T15:01:49;13.40;;;9.40;;
6842;SDS011;3460;52.028;8.916;2022-12-05T15:04:19;11.93;;;9.37;;
6842;SDS011;3460;52.028;8.916;2022-12-05T15:06:52;15.17;;;11.33;;
6842;SDS011;3460;52.028;8.916;2022-12-05T15:09:28;25.97;;;16.00;;
6842;SDS011;3460;52.028;8.916;2022-12-05T15:12:12;15.63;;;11.37;;
6842;SDS011;3460;52.028;8.916;2022-12-05T15:14:43;42.77;;;24.27;;
6842;SDS011;3460;52.028;8.916;2022-12-05T15:17:15;18.80;;;12.50;;
6842;SDS011;3460;52.028;8.916;2022-12-05T15:19:49;14.57;;;10.80;;
6842;SDS011;3460;52.028;8.916;2022-12-05T15:22:20;14.33;;;10.77;;
6842;SDS011;3460;52.028;8.916;2022-12-05T15:24:50;19.50;;;13.03;;
6842;SDS011;3460;52.028;8.916;2022-12-05T15:27:17;20.03;;;14.97;;
6842;SDS011;3460;52.028;8.916;2022-12-05T15:29:46;27.03;;;15.93;;
6842;SDS011;3460;52.028;8.916;2022-12-05T15:32:14;19.93;;;14.17;;
6842;SDS011;3460;52.028;8.916;2022-12-05T15:34:44;26.13;;;17.07;;
6842;SDS011;3460;52.028;8.916;2022-12-05T15:37:15;23.87;;;16.53;;
6842;SDS011;3460;52.028;8.916;2022-12-05T15:39:49;25.17;;;15.43;;
6842;SDS011;3460;52.028;8.916;2022-12-05T15:42:21;21.23;;;14.50;;